sensor_id;sensor_type;location;lat;lon;timestamp;pressure;altitude;pressure_sealevel;temperature
69530;BMP180;56727;47.188;8.840;2023-08-31T00:01:15;96576.20;;;21.48
69530;BMP180;56727;47.188;8.840;2023-08-31T00:03:41;96574.40;;;21.40
69530;BMP180;56727;47.188;8.840;2023-08-31T00:06:08;96576.00;;;21.38
69530;BMP180;56727;47.188;8.840;2023-08-31T00:08:34;96576.20;;;21.40
69530;BMP180;56727;47.188;8.840;2023-08-31T00:11:01;96574.40;;;21.38
69530;BMP180;56727;47.188;8.840;2023-08-31T00:13:28;96574.00;;;21.36
69530;BMP180;56727;47.188;8.840;2023-08-31T00:15:56;96574.80;;;21.34
69530;BMP180;56727;47.188;8.840;2023-08-31T00:18:24;96572.60;;;21.34
69530;BMP180;56727;47.188;8.840;2023-08-31T00:20:52;96571.20;;;21.82
69530;BMP180;56727;47.188;8.840;2023-08-31T00:23:18;96566.80;;;22.54
69530;BMP180;56727;47.188;8.840;2023-08-31T00:25:47;96567.20;;;22.70
69530;BMP180;56727;47.188;8.840;2023-08-31T00:28:17;96569.20;;;21.90
69530;BMP180;56727;47.188;8.840;2023-08-31T00:30:44;96571.40;;;21.58
69530;BMP180;56727;47.188;8.840;2023-08-31T00:33:12;96567.20;;;22.40
69530;BMP180;56727;47.188;8.840;2023-08-31T00:35:38;96566.00;;;22.84
69530;BMP180;56727;47.188;8.840;2023-08-31T00:38:12;96569.60;;;22.54
69530;BMP180;56727;47.188;8.840;2023-08-31T00:40:42;96573.00;;;21.84
69530;BMP180;56727;47.188;8.840;2023-08-31T00:43:13;96573.00;;;22.50
69530;BMP180;56727;47.188;8.840;2023-08-31T00:45:42;96575.40;;;22.86
69530;BMP180;56727;47.188;8.840;2023-08-31T00:48:09;96575.40;;;23.00
69530;BMP180;56727;47.188;8.840;2023-08-31T00:50:37;96576.20;;;22.26
69530;BMP180;56727;47.188;8.840;2023-08-31T00:53:03;96574.40;;;21.60
69530;BMP180;56727;47.188;8.840;2023-08-31T00:55:32;96577.60;;;21.36
69530;BMP180;56727;47.188;8.840;2023-08-31T00:58:00;96571.60;;;21.26
69530;BMP180;56727;47.188;8.840;2023-08-31T01:00:53;96572.20;;;21.18
69530;BMP180;56727;47.188;8.840;2023-08-31T01:04:01;96571.60;;;21.30
69530;BMP180;56727;47.188;8.840;2023-08-31T01:07:31;96572.40;;;21.48
69530;BMP180;56727;47.188;8.840;2023-08-31T01:10:45;96568.20;;;21.68
69530;BMP180;56727;47.188;8.840;2023-08-31T01:13:21;96566.60;;;21.74
69530;BMP180;56727;47.188;8.840;2023-08-31T01:16:00;96565.60;;;21.42
69530;BMP180;56727;47.188;8.840;2023-08-31T01:18:31;96571.80;;;21.20
69530;BMP180;56727;47.188;8.840;2023-08-31T01:21:16;96569.80;;;21.08
69530;BMP180;56727;47.188;8.840;2023-08-31T01:23:52;96567.80;;;21.38
69530;BMP180;56727;47.188;8.840;2023-08-31T01:26:23;96570.00;;;21.12
69530;BMP180;56727;47.188;8.840;2023-08-31T01:28:51;96573.00;;;21.20
69530;BMP180;56727;47.188;8.840;2023-08-31T01:31:19;96577.80;;;21.06
69530;BMP180;56727;47.188;8.840;2023-08-31T01:33:47;96579.40;;;20.84
69530;BMP180;56727;47.188;8.840;2023-08-31T01:36:28;96580.40;;;20.74
69530;BMP180;56727;47.188;8.840;2023-08-31T01:39:27;96577.60;;;21.76
69530;BMP180;56727;47.188;8.840;2023-08-31T01:42:04;96576.40;;;21.40
69530;BMP180;56727;47.188;8.840;2023-08-31T01:44:35;96579.00;;;21.12
69530;BMP180;56727;47.188;8.840;2023-08-31T01:47:06;96580.80;;;21.04
69530;BMP180;56727;47.188;8.840;2023-08-31T01:49:40;96578.80;;;21.96
69530;BMP180;56727;47.188;8.840;2023-08-31T01:52:07;96583.00;;;22.46
69530;BMP180;56727;47.188;8.840;2023-08-31T01:54:34;96580.80;;;22.66
69530;BMP180;56727;47.188;8.840;2023-08-31T01:57:00;96582.00;;;22.04
69530;BMP180;56727;47.188;8.840;2023-08-31T01:59:29;96583.80;;;21.40
69530;BMP180;56727;47.188;8.840;2023-08-31T02:01:55;96582.00;;;21.10
69530;BMP180;56727;47.188;8.840;2023-08-31T02:04:22;96581.80;;;21.00
69530;BMP180;56727;47.188;8.840;2023-08-31T02:06:48;96578.80;;;21.00
69530;BMP180;56727;47.188;8.840;2023-08-31T02:09:15;96576.40;;;20.90
69530;BMP180;56727;47.188;8.840;2023-08-31T02:11:41;96579.00;;;20.82
69530;BMP180;56727;47.188;8.840;2023-08-31T02:14:08;96584.40;;;20.80
69530;BMP180;56727;47.188;8.840;2023-08-31T02:16:34;96589.40;;;20.80
69530;BMP180;56727;47.188;8.840;2023-08-31T02:19:01;96597.60;;;20.80
69530;BMP180;56727;47.188;8.840;2023-08-31T02:21:27;96605.20;;;20.78
69530;BMP180;56727;47.188;8.840;2023-08-31T02:23:54;96607.80;;;20.70
69530;BMP180;56727;47.188;8.840;2023-08-31T02:26:21;96615.00;;;20.68
69530;BMP180;56727;47.188;8.840;2023-08-31T02:28:48;96615.20;;;20.68
69530;BMP180;56727;47.188;8.840;2023-08-31T02:31:17;96615.40;;;20.72
69530;BMP180;56727;47.188;8.840;2023-08-31T02:33:46;96613.40;;;20.74
69530;BMP180;56727;47.188;8.840;2023-08-31T02:36:13;96609.40;;;20.76
69530;BMP180;56727;47.188;8.840;2023-08-31T02:38:40;96611.20;;;21.40
69530;BMP180;56727;47.188;8.840;2023-08-31T02:41:06;96616.20;;;21.04
69530;BMP180;56727;47.188;8.840;2023-08-31T02:43:33;96616.80;;;20.90
69530;BMP180;56727;47.188;8.840;2023-08-31T02:46:01;96616.80;;;20.80
69530;BMP180;56727;47.188;8.840;2023-08-31T02:48:29;96617.40;;;20.78
69530;BMP180;56727;47.188;8.840;2023-08-31T02:50:57;96615.00;;;21.70
69530;BMP180;56727;47.188;8.840;2023-08-31T02:53:24;96611.00;;;22.18
69530;BMP180;56727;47.188;8.840;2023-08-31T02:55:51;96611.00;;;21.98
69530;BMP180;56727;47.188;8.840;2023-08-31T02:58:17;96613.20;;;21.26
69530;BMP180;56727;47.188;8.840;2023-08-31T03:00:45;96613.80;;;20.90
69530;BMP180;56727;47.188;8.840;2023-08-31T03:03:15;96617.60;;;20.74
69530;BMP180;56727;47.188;8.840;2023-08-31T03:05:43;96615.80;;;20.60
69530;BMP180;56727;47.188;8.840;2023-08-31T03:08:10;96612.60;;;20.62
69530;BMP180;56727;47.188;8.840;2023-08-31T03:10:38;96616.00;;;20.64
69530;BMP180;56727;47.188;8.840;2023-08-31T03:13:05;96614.60;;;20.62
69530;BMP180;56727;47.188;8.840;2023-08-31T03:15:33;96617.00;;;20.74
69530;BMP180;56727;47.188;8.840;2023-08-31T03:18:03;96622.60;;;20.80
69530;BMP180;56727;47.188;8.840;2023-08-31T03:20:30;96617.60;;;20.82
69530;BMP180;56727;47.188;8.840;2023-08-31T03:22:56;96614.60;;;21.66
69530;BMP180;56727;47.188;8.840;2023-08-31T03:25:23;96616.20;;;22.16
69530;BMP180;56727;47.188;8.840;2023-08-31T03:27:50;96610.40;;;22.38
69530;BMP180;56727;47.188;8.840;2023-08-31T03:30:18;96610.20;;;21.50
69530;BMP180;56727;47.188;8.840;2023-08-31T03:32:46;96613.60;;;21.02
69530;BMP180;56727;47.188;8.840;2023-08-31T03:35:12;96616.20;;;21.20
69530;BMP180;56727;47.188;8.840;2023-08-31T03:37:39;96616.60;;;20.80
69530;BMP180;56727;47.188;8.840;2023-08-31T03:40:07;96618.00;;;20.68
69530;BMP180;56727;47.188;8.840;2023-08-31T03:42:34;96617.80;;;20.62
69530;BMP180;56727;47.188;8.840;2023-08-31T03:45:01;96617.80;;;21.56
69530;BMP180;56727;47.188;8.840;2023-08-31T03:47:29;96619.20;;;22.00
69530;BMP180;56727;47.188;8.840;2023-08-31T03:49:56;96622.40;;;21.64
69530;BMP180;56727;47.188;8.840;2023-08-31T03:52:23;96629.00;;;20.98
69530;BMP180;56727;47.188;8.840;2023-08-31T03:54:51;96636.00;;;20.70
69530;BMP180;56727;47.188;8.840;2023-08-31T03:57:18;96635.40;;;20.62
69530;BMP180;56727;47.188;8.840;2023-08-31T03:59:44;96635.00;;;21.56
69530;BMP180;56727;47.188;8.840;2023-08-31T04:02:11;96635.60;;;21.30
69530;BMP180;56727;47.188;8.840;2023-08-31T04:04:37;96638.80;;;20.80
69530;BMP180;56727;47.188;8.840;2023-08-31T04:07:05;96641.60;;;20.60
69530;BMP180;56727;47.188;8.840;2023-08-31T04:09:32;96638.40;;;20.50
69530;BMP180;56727;47.188;8.840;2023-08-31T04:11:59;96640.20;;;20.40
69530;BMP180;56727;47.188;8.840;2023-08-31T04:14:26;96646.60;;;20.38
69530;BMP180;56727;47.188;8.840;2023-08-31T04:16:57;96649.20;;;20.34
69530;BMP180;56727;47.188;8.840;2023-08-31T04:19:23;96651.20;;;21.34
69530;BMP180;56727;47.188;8.840;2023-08-31T04:21:50;96656.80;;;21.82
69530;BMP180;56727;47.188;8.840;2023-08-31T04:24:16;96652.40;;;22.00
69530;BMP180;56727;47.188;8.840;2023-08-31T04:26:44;96653.80;;;21.20
69530;BMP180;56727;47.188;8.840;2023-08-31T04:29:11;96658.20;;;20.70
69530;BMP180;56727;47.188;8.840;2023-08-31T04:31:37;96664.20;;;20.38
69530;BMP180;56727;47.188;8.840;2023-08-31T04:34:05;96660.80;;;20.30
69530;BMP180;56727;47.188;8.840;2023-08-31T04:36:32;96668.00;;;20.30
69530;BMP180;56727;47.188;8.840;2023-08-31T04:38:58;96666.00;;;20.26
69530;BMP180;56727;47.188;8.840;2023-08-31T04:41:24;96669.60;;;20.30
69530;BMP180;56727;47.188;8.840;2023-08-31T04:43:51;96678.20;;;20.30
69530;BMP180;56727;47.188;8.840;2023-08-31T04:46:18;96677.60;;;20.24
69530;BMP180;56727;47.188;8.840;2023-08-31T04:48:44;96676.80;;;20.20
69530;BMP180;56727;47.188;8.840;2023-08-31T04:51:34;96678.80;;;20.20
69530;BMP180;56727;47.188;8.840;2023-08-31T04:54:01;96680.60;;;20.18
69530;BMP180;56727;47.188;8.840;2023-08-31T04:56:31;96686.40;;;20.10
69530;BMP180;56727;47.188;8.840;2023-08-31T04:59:00;96687.20;;;20.10
69530;BMP180;56727;47.188;8.840;2023-08-31T05:01:26;96683.40;;;20.16
69530;BMP180;56727;47.188;8.840;2023-08-31T05:03:53;96686.20;;;20.50
69530;BMP180;56727;47.188;8.840;2023-08-31T05:06:20;96690.20;;;20.30
69530;BMP180;56727;47.188;8.840;2023-08-31T05:08:47;96691.20;;;20.20
69530;BMP180;56727;47.188;8.840;2023-08-31T05:11:15;96692.40;;;20.10
69530;BMP180;56727;47.188;8.840;2023-08-31T05:13:42;96693.60;;;20.20
69530;BMP180;56727;47.188;8.840;2023-08-31T05:16:09;96694.00;;;20.20
69530;BMP180;56727;47.188;8.840;2023-08-31T05:18:37;96696.40;;;20.20
69530;BMP180;56727;47.188;8.840;2023-08-31T05:21:04;96695.00;;;20.26
69530;BMP180;56727;47.188;8.840;2023-08-31T05:23:30;96693.20;;;21.18
69530;BMP180;56727;47.188;8.840;2023-08-31T05:25:58;96681.20;;;20.70
69530;BMP180;56727;47.188;8.840;2023-08-31T05:28:25;96705.80;;;20.52
69530;BMP180;56727;47.188;8.840;2023-08-31T05:30:57;96713.40;;;20.46
69530;BMP180;56727;47.188;8.840;2023-08-31T05:33:24;96713.40;;;20.54
69530;BMP180;56727;47.188;8.840;2023-08-31T05:35:55;96720.20;;;21.10
69530;BMP180;56727;47.188;8.840;2023-08-31T05:38:21;96731.00;;;20.70
69530;BMP180;56727;47.188;8.840;2023-08-31T05:40:48;96737.20;;;20.60
69530;BMP180;56727;47.188;8.840;2023-08-31T05:43:16;96744.60;;;20.60
69530;BMP180;56727;47.188;8.840;2023-08-31T05:45:42;96750.80;;;20.58
69530;BMP180;56727;47.188;8.840;2023-08-31T05:48:09;96754.00;;;20.60
69530;BMP180;56727;47.188;8.840;2023-08-31T05:50:36;96758.80;;;20.60
69530;BMP180;56727;47.188;8.840;2023-08-31T05:53:05;96761.40;;;20.60
69530;BMP180;56727;47.188;8.840;2023-08-31T05:55:34;96751.60;;;20.70
69530;BMP180;56727;47.188;8.840;2023-08-31T05:58:00;96752.40;;;20.70
69530;BMP180;56727;47.188;8.840;2023-08-31T06:00:27;96754.20;;;20.76
69530;BMP180;56727;47.188;8.840;2023-08-31T06:02:54;96755.80;;;20.74
69530;BMP180;56727;47.188;8.840;2023-08-31T06:05:21;96765.60;;;20.80
69530;BMP180;56727;47.188;8.840;2023-08-31T06:07:48;96767.00;;;20.80
69530;BMP180;56727;47.188;8.840;2023-08-31T06:10:14;96770.80;;;20.80
69530;BMP180;56727;47.188;8.840;2023-08-31T06:12:41;96775.20;;;20.80
69530;BMP180;56727;47.188;8.840;2023-08-31T06:15:08;96775.40;;;20.84
69530;BMP180;56727;47.188;8.840;2023-08-31T06:17:35;96772.20;;;20.86
69530;BMP180;56727;47.188;8.840;2023-08-31T06:20:02;96781.20;;;21.52
69530;BMP180;56727;47.188;8.840;2023-08-31T06:22:31;96784.20;;;21.22
69530;BMP180;56727;47.188;8.840;2023-08-31T06:24:58;96782.60;;;22.00
69530;BMP180;56727;47.188;8.840;2023-08-31T06:27:24;96790.20;;;21.52
69530;BMP180;56727;47.188;8.840;2023-08-31T06:29:51;96803.20;;;21.20
69530;BMP180;56727;47.188;8.840;2023-08-31T06:32:18;96809.40;;;21.46
69530;BMP180;56727;47.188;8.840;2023-08-31T06:34:45;96809.40;;;21.20
69530;BMP180;56727;47.188;8.840;2023-08-31T06:37:12;96809.40;;;21.08
69530;BMP180;56727;47.188;8.840;2023-08-31T06:39:39;96808.60;;;21.10
69530;BMP180;56727;47.188;8.840;2023-08-31T06:42:07;96812.00;;;21.08
69530;BMP180;56727;47.188;8.840;2023-08-31T06:44:34;96810.80;;;21.14
69530;BMP180;56727;47.188;8.840;2023-08-31T06:47:00;96806.20;;;22.12
69530;BMP180;56727;47.188;8.840;2023-08-31T06:49:27;96809.60;;;22.40
69530;BMP180;56727;47.188;8.840;2023-08-31T06:51:54;96813.20;;;21.80
69530;BMP180;56727;47.188;8.840;2023-08-31T06:54:20;96814.00;;;21.50
69530;BMP180;56727;47.188;8.840;2023-08-31T06:56:47;96809.80;;;21.40
69530;BMP180;56727;47.188;8.840;2023-08-31T06:59:13;96811.80;;;21.44
69530;BMP180;56727;47.188;8.840;2023-08-31T07:01:40;96814.80;;;21.42
69530;BMP180;56727;47.188;8.840;2023-08-31T07:04:06;96816.00;;;21.48
69530;BMP180;56727;47.188;8.840;2023-08-31T07:06:35;96816.40;;;21.50
69530;BMP180;56727;47.188;8.840;2023-08-31T07:09:02;96824.00;;;21.50
69530;BMP180;56727;47.188;8.840;2023-08-31T07:11:31;96822.00;;;21.52
69530;BMP180;56727;47.188;8.840;2023-08-31T07:13:58;96822.40;;;21.50
69530;BMP180;56727;47.188;8.840;2023-08-31T07:16:25;96833.40;;;21.40
69530;BMP180;56727;47.188;8.840;2023-08-31T07:18:52;96834.20;;;21.40
69530;BMP180;56727;47.188;8.840;2023-08-31T07:21:18;96830.80;;;21.32
69530;BMP180;56727;47.188;8.840;2023-08-31T07:23:46;96831.00;;;21.32
69530;BMP180;56727;47.188;8.840;2023-08-31T07:26:12;96830.00;;;21.40
69530;BMP180;56727;47.188;8.840;2023-08-31T07:28:39;96831.40;;;21.56
69530;BMP180;56727;47.188;8.840;2023-08-31T07:31:07;96844.20;;;21.58
69530;BMP180;56727;47.188;8.840;2023-08-31T07:33:34;96852.20;;;21.60
69530;BMP180;56727;47.188;8.840;2023-08-31T07:36:02;96849.60;;;22.56
69530;BMP180;56727;47.188;8.840;2023-08-31T07:38:31;96843.60;;;22.14
69530;BMP180;56727;47.188;8.840;2023-08-31T07:40:58;96836.80;;;21.92
69530;BMP180;56727;47.188;8.840;2023-08-31T07:43:25;96841.40;;;22.80
69530;BMP180;56727;47.188;8.840;2023-08-31T07:45:53;96847.20;;;23.24
69530;BMP180;56727;47.188;8.840;2023-08-31T07:48:20;96852.40;;;23.44
69530;BMP180;56727;47.188;8.840;2023-08-31T07:50:46;96856.20;;;23.50
69530;BMP180;56727;47.188;8.840;2023-08-31T07:53:13;96866.40;;;22.60
69530;BMP180;56727;47.188;8.840;2023-08-31T07:55:40;96874.80;;;22.10
69530;BMP180;56727;47.188;8.840;2023-08-31T07:58:07;96878.40;;;21.86
69530;BMP180;56727;47.188;8.840;2023-08-31T08:00:33;96878.00;;;22.70
69530;BMP180;56727;47.188;8.840;2023-08-31T08:03:00;96876.60;;;23.16
69530;BMP180;56727;47.188;8.840;2023-08-31T08:05:27;96879.80;;;23.28
69530;BMP180;56727;47.188;8.840;2023-08-31T08:07:53;96879.00;;;23.34
69530;BMP180;56727;47.188;8.840;2023-08-31T08:10:20;96882.40;;;23.42
69530;BMP180;56727;47.188;8.840;2023-08-31T08:12:46;96882.80;;;23.50
69530;BMP180;56727;47.188;8.840;2023-08-31T08:15:13;96888.20;;;23.32
69530;BMP180;56727;47.188;8.840;2023-08-31T08:17:40;96888.00;;;22.48
69530;BMP180;56727;47.188;8.840;2023-08-31T08:20:08;96880.40;;;22.00
69530;BMP180;56727;47.188;8.840;2023-08-31T08:22:35;96884.20;;;21.90
69530;BMP180;56727;47.188;8.840;2023-08-31T08:25:02;96883.40;;;22.80
69530;BMP180;56727;47.188;8.840;2023-08-31T08:27:29;96881.40;;;23.28
69530;BMP180;56727;47.188;8.840;2023-08-31T08:29:56;96884.00;;;23.52
69530;BMP180;56727;47.188;8.840;2023-08-31T08:32:22;96883.80;;;23.02
69530;BMP180;56727;47.188;8.840;2023-08-31T08:34:50;96890.20;;;22.60
69530;BMP180;56727;47.188;8.840;2023-08-31T08:37:17;96893.00;;;22.60
69530;BMP180;56727;47.188;8.840;2023-08-31T08:39:49;96894.20;;;22.72
69530;BMP180;56727;47.188;8.840;2023-08-31T08:42:18;96904.00;;;22.90
69530;BMP180;56727;47.188;8.840;2023-08-31T08:44:46;96902.40;;;24.14
69530;BMP180;56727;47.188;8.840;2023-08-31T08:47:13;96903.20;;;24.60
69530;BMP180;56727;47.188;8.840;2023-08-31T08:49:40;96907.60;;;23.88
69530;BMP180;56727;47.188;8.840;2023-08-31T08:52:08;96912.40;;;23.42
69530;BMP180;56727;47.188;8.840;2023-08-31T08:54:36;96911.40;;;23.28
69530;BMP180;56727;47.188;8.840;2023-08-31T08:57:03;96911.40;;;23.28
69530;BMP180;56727;47.188;8.840;2023-08-31T08:59:32;96917.20;;;23.24
69530;BMP180;56727;47.188;8.840;2023-08-31T09:01:59;96909.00;;;24.34
69530;BMP180;56727;47.188;8.840;2023-08-31T09:04:26;96911.80;;;24.64
69530;BMP180;56727;47.188;8.840;2023-08-31T09:06:54;96919.20;;;25.10
69530;BMP180;56727;47.188;8.840;2023-08-31T09:09:21;96918.20;;;25.24
69530;BMP180;56727;47.188;8.840;2023-08-31T09:11:48;96920.00;;;25.50
69530;BMP180;56727;47.188;8.840;2023-08-31T09:14:19;96919.00;;;25.60
69530;BMP180;56727;47.188;8.840;2023-08-31T09:16:48;96917.80;;;25.88
69530;BMP180;56727;47.188;8.840;2023-08-31T09:19:24;96919.00;;;27.02
69530;BMP180;56727;47.188;8.840;2023-08-31T09:21:53;96924.20;;;26.66
69530;BMP180;56727;47.188;8.840;2023-08-31T09:24:20;96926.20;;;27.40
69530;BMP180;56727;47.188;8.840;2023-08-31T09:26:58;96919.80;;;27.86
69530;BMP180;56727;47.188;8.840;2023-08-31T09:29:25;96920.20;;;28.04
69530;BMP180;56727;47.188;8.840;2023-08-31T09:31:51;96921.40;;;28.00
69530;BMP180;56727;47.188;8.840;2023-08-31T09:34:18;96914.20;;;28.00
69530;BMP180;56727;47.188;8.840;2023-08-31T09:36:45;96915.60;;;28.02
69530;BMP180;56727;47.188;8.840;2023-08-31T09:39:14;96911.40;;;27.22
69530;BMP180;56727;47.188;8.840;2023-08-31T09:41:56;96912.00;;;26.66
69530;BMP180;56727;47.188;8.840;2023-08-31T09:44:23;96910.00;;;26.88
69530;BMP180;56727;47.188;8.840;2023-08-31T09:46:50;96909.20;;;26.40
69530;BMP180;56727;47.188;8.840;2023-08-31T09:49:17;96909.00;;;26.10
69530;BMP180;56727;47.188;8.840;2023-08-31T09:51:48;96902.80;;;25.90
69530;BMP180;56727;47.188;8.840;2023-08-31T09:54:20;96906.60;;;25.84
69530;BMP180;56727;47.188;8.840;2023-08-31T09:56:49;96910.40;;;25.82
69530;BMP180;56727;47.188;8.840;2023-08-31T09:59:16;96912.20;;;25.76
69530;BMP180;56727;47.188;8.840;2023-08-31T10:01:45;96910.60;;;25.72
69530;BMP180;56727;47.188;8.840;2023-08-31T10:04:13;96915.60;;;26.68
69530;BMP180;56727;47.188;8.840;2023-08-31T10:06:41;96909.60;;;27.14
69530;BMP180;56727;47.188;8.840;2023-08-31T10:09:09;96911.40;;;26.50
69530;BMP180;56727;47.188;8.840;2023-08-31T10:11:39;96906.80;;;26.84
69530;BMP180;56727;47.188;8.840;2023-08-31T10:14:08;96914.20;;;26.20
69530;BMP180;56727;47.188;8.840;2023-08-31T10:16:35;96911.60;;;26.62
69530;BMP180;56727;47.188;8.840;2023-08-31T10:19:03;96910.20;;;26.36
69530;BMP180;56727;47.188;8.840;2023-08-31T10:21:29;96903.60;;;25.60
69530;BMP180;56727;47.188;8.840;2023-08-31T10:23:56;96906.20;;;25.30
69530;BMP180;56727;47.188;8.840;2023-08-31T10:26:25;96907.20;;;25.10
69530;BMP180;56727;47.188;8.840;2023-08-31T10:28:52;96902.80;;;24.94
69530;BMP180;56727;47.188;8.840;2023-08-31T10:31:20;96902.60;;;24.92
69530;BMP180;56727;47.188;8.840;2023-08-31T10:34:06;96904.20;;;25.90
69530;BMP180;56727;47.188;8.840;2023-08-31T10:36:44;96898.00;;;26.54
69530;BMP180;56727;47.188;8.840;2023-08-31T10:39:18;96896.40;;;26.78
69530;BMP180;56727;47.188;8.840;2023-08-31T10:41:56;96902.60;;;26.00
69530;BMP180;56727;47.188;8.840;2023-08-31T10:44:25;96904.00;;;25.64
69530;BMP180;56727;47.188;8.840;2023-08-31T10:46:53;96903.20;;;25.82
69530;BMP180;56727;47.188;8.840;2023-08-31T10:49:22;96897.40;;;26.62
69530;BMP180;56727;47.188;8.840;2023-08-31T10:54:40;96898.80;;;26.04
69530;BMP180;56727;47.188;8.840;2023-08-31T10:57:07;96902.40;;;25.82
69530;BMP180;56727;47.188;8.840;2023-08-31T10:59:52;96906.80;;;25.72
69530;BMP180;56727;47.188;8.840;2023-08-31T11:02:58;96902.80;;;25.80
69530;BMP180;56727;47.188;8.840;2023-08-31T11:05:24;96897.20;;;26.04
69530;BMP180;56727;47.188;8.840;2023-08-31T11:07:52;96902.20;;;26.00
69530;BMP180;56727;47.188;8.840;2023-08-31T11:10:25;96901.60;;;25.90
69530;BMP180;56727;47.188;8.840;2023-08-31T11:12:56;96901.60;;;26.52
69530;BMP180;56727;47.188;8.840;2023-08-31T11:15:26;96896.80;;;27.10
69530;BMP180;56727;47.188;8.840;2023-08-31T11:17:54;96892.60;;;27.42
69530;BMP180;56727;47.188;8.840;2023-08-31T11:20:23;96889.40;;;27.58
69530;BMP180;56727;47.188;8.840;2023-08-31T11:22:51;96891.20;;;27.68
69530;BMP180;56727;47.188;8.840;2023-08-31T11:25:19;96896.00;;;27.06
69530;BMP180;56727;47.188;8.840;2023-08-31T11:27:58;96897.00;;;26.92
69530;BMP180;56727;47.188;8.840;2023-08-31T11:30:30;96897.40;;;27.12
69530;BMP180;56727;47.188;8.840;2023-08-31T11:33:07;96894.80;;;27.40
69530;BMP180;56727;47.188;8.840;2023-08-31T11:35:40;96900.20;;;26.62
69530;BMP180;56727;47.188;8.840;2023-08-31T11:38:08;96899.20;;;27.28
69530;BMP180;56727;47.188;8.840;2023-08-31T11:40:36;96896.40;;;26.70
69530;BMP180;56727;47.188;8.840;2023-08-31T11:43:04;96900.60;;;26.30
69530;BMP180;56727;47.188;8.840;2023-08-31T11:45:32;96898.60;;;26.18
69530;BMP180;56727;47.188;8.840;2023-08-31T11:48:00;96899.00;;;26.10
69530;BMP180;56727;47.188;8.840;2023-08-31T11:50:27;96897.40;;;26.00
69530;BMP180;56727;47.188;8.840;2023-08-31T11:52:54;96896.80;;;26.00
69530;BMP180;56727;47.188;8.840;2023-08-31T11:55:21;96895.20;;;26.00
69530;BMP180;56727;47.188;8.840;2023-08-31T11:57:54;96896.60;;;27.00
69530;BMP180;56727;47.188;8.840;2023-08-31T12:00:22;96899.20;;;27.10
69530;BMP180;56727;47.188;8.840;2023-08-31T12:02:57;96902.20;;;26.52
69530;BMP180;56727;47.188;8.840;2023-08-31T12:05:26;96900.40;;;27.26
69530;BMP180;56727;47.188;8.840;2023-08-31T12:07:54;96897.80;;;27.66
69530;BMP180;56727;47.188;8.840;2023-08-31T12:10:24;96894.00;;;27.82
69530;BMP180;56727;47.188;8.840;2023-08-31T12:12:51;96898.20;;;27.86
69530;BMP180;56727;47.188;8.840;2023-08-31T12:15:19;96896.00;;;27.90
69530;BMP180;56727;47.188;8.840;2023-08-31T12:17:48;96900.20;;;27.86
69530;BMP180;56727;47.188;8.840;2023-08-31T12:20:25;96898.80;;;27.90
69530;BMP180;56727;47.188;8.840;2023-08-31T12:22:55;96899.80;;;27.94
69530;BMP180;56727;47.188;8.840;2023-08-31T12:25:22;96901.60;;;27.94
69530;BMP180;56727;47.188;8.840;2023-08-31T12:27:50;96902.60;;;28.04
69530;BMP180;56727;47.188;8.840;2023-08-31T12:30:16;96906.20;;;28.08
69530;BMP180;56727;47.188;8.840;2023-08-31T12:32:43;96903.20;;;27.68
69530;BMP180;56727;47.188;8.840;2023-08-31T12:35:10;96903.40;;;26.88
69530;BMP180;56727;47.188;8.840;2023-08-31T12:37:37;96907.40;;;26.50
69530;BMP180;56727;47.188;8.840;2023-08-31T12:40:06;96914.00;;;26.40
69530;BMP180;56727;47.188;8.840;2023-08-31T12:42:33;96913.00;;;26.34
69530;BMP180;56727;47.188;8.840;2023-08-31T12:45:00;96910.60;;;27.24
69530;BMP180;56727;47.188;8.840;2023-08-31T12:47:26;96909.40;;;27.26
69530;BMP180;56727;47.188;8.840;2023-08-31T12:49:53;96907.00;;;26.60
69530;BMP180;56727;47.188;8.840;2023-08-31T12:52:19;96909.40;;;26.30
69530;BMP180;56727;47.188;8.840;2023-08-31T12:54:46;96909.20;;;26.10
69530;BMP180;56727;47.188;8.840;2023-08-31T12:57:12;96907.20;;;25.98
69530;BMP180;56727;47.188;8.840;2023-08-31T12:59:39;96904.60;;;25.98
69530;BMP180;56727;47.188;8.840;2023-08-31T13:02:05;96899.40;;;25.90
69530;BMP180;56727;47.188;8.840;2023-08-31T13:04:36;96902.40;;;25.88
69530;BMP180;56727;47.188;8.840;2023-08-31T13:07:03;96901.00;;;25.80
69530;BMP180;56727;47.188;8.840;2023-08-31T13:09:31;96901.60;;;25.70
69530;BMP180;56727;47.188;8.840;2023-08-31T13:11:57;96898.80;;;25.70
69530;BMP180;56727;47.188;8.840;2023-08-31T13:14:24;96897.20;;;25.70
69530;BMP180;56727;47.188;8.840;2023-08-31T13:16:50;96899.20;;;25.70
69530;BMP180;56727;47.188;8.840;2023-08-31T13:19:17;96894.40;;;25.70
69530;BMP180;56727;47.188;8.840;2023-08-31T13:21:44;96896.00;;;25.60
69530;BMP180;56727;47.188;8.840;2023-08-31T13:24:12;96898.20;;;25.60
69530;BMP180;56727;47.188;8.840;2023-08-31T13:26:38;96896.00;;;25.60
69530;BMP180;56727;47.188;8.840;2023-08-31T13:29:05;96900.60;;;25.50
69530;BMP180;56727;47.188;8.840;2023-08-31T13:31:31;96901.60;;;25.50
69530;BMP180;56727;47.188;8.840;2023-08-31T13:33:59;96899.00;;;25.40
69530;BMP180;56727;47.188;8.840;2023-08-31T13:36:26;96895.40;;;25.38
69530;BMP180;56727;47.188;8.840;2023-08-31T13:38:52;96891.40;;;25.30
69530;BMP180;56727;47.188;8.840;2023-08-31T13:41:19;96892.40;;;25.28
69530;BMP180;56727;47.188;8.840;2023-08-31T13:43:45;96895.00;;;25.22
69530;BMP180;56727;47.188;8.840;2023-08-31T13:46:12;96893.00;;;25.22
69530;BMP180;56727;47.188;8.840;2023-08-31T13:48:38;96888.80;;;25.14
69530;BMP180;56727;47.188;8.840;2023-08-31T13:51:05;96889.20;;;25.10
69530;BMP180;56727;47.188;8.840;2023-08-31T13:53:31;96889.00;;;25.10
69530;BMP180;56727;47.188;8.840;2023-08-31T13:55:58;96894.00;;;25.10
69530;BMP180;56727;47.188;8.840;2023-08-31T13:58:25;96892.60;;;25.10
69530;BMP180;56727;47.188;8.840;2023-08-31T14:00:52;96890.40;;;25.10
69530;BMP180;56727;47.188;8.840;2023-08-31T14:03:18;96886.80;;;25.10
69530;BMP180;56727;47.188;8.840;2023-08-31T14:05:49;96888.60;;;25.10
69530;BMP180;56727;47.188;8.840;2023-08-31T14:08:16;96887.20;;;25.14
69530;BMP180;56727;47.188;8.840;2023-08-31T14:10:42;96883.00;;;25.60
69530;BMP180;56727;47.188;8.840;2023-08-31T14:13:09;96888.80;;;25.38
69530;BMP180;56727;47.188;8.840;2023-08-31T14:15:36;96896.60;;;25.30
69530;BMP180;56727;47.188;8.840;2023-08-31T14:18:03;96897.80;;;25.20
69530;BMP180;56727;47.188;8.840;2023-08-31T14:20:30;96894.20;;;25.32